createdAt,value
2022-07-29T00:00:24.616Z,98492.88
2022-07-29T00:03:05.891Z,98503.53
2022-07-29T00:05:34.307Z,98502.38
2022-07-29T00:08:02.419Z,98497.25
2022-07-29T00:10:30.513Z,98497.09
2022-07-29T00:12:58.866Z,98492.81
2022-07-29T00:15:27.245Z,98493.88
2022-07-29T00:17:55.345Z,98486.50
2022-07-29T00:20:25.030Z,98491.00
2022-07-29T00:22:54.252Z,98483.16
2022-07-29T00:25:22.533Z,98480.44
2022-07-29T00:27:50.885Z,98476.50
2022-07-29T00:30:19.159Z,98486.75
2022-07-29T00:32:47.298Z,98480.31
2022-07-29T00:35:33.495Z,98478.03
2022-07-29T00:38:03.073Z,98476.84
2022-07-29T00:40:31.719Z,98475.78
2022-07-29T00:43:00.035Z,98469.97
2022-07-29T00:45:28.275Z,98471.56
2022-07-29T00:47:56.970Z,98465.00
2022-07-29T00:50:25.532Z,98472.66
2022-07-29T00:52:54.390Z,98471.34
2022-07-29T00:55:24.346Z,98473.28
2022-07-29T00:57:52.932Z,98460.78
2022-07-29T01:00:24.029Z,98464.41
2022-07-29T01:02:52.668Z,98461.63
2022-07-29T01:05:22.354Z,98462.41
2022-07-29T01:07:52.209Z,98461.63
2022-07-29T01:10:22.139Z,98462.97
2022-07-29T01:12:53.898Z,98459.88
2022-07-29T01:15:22.553Z,98446.84
2022-07-29T01:17:55.159Z,98450.63
2022-07-29T01:20:31.233Z,98457.81
2022-07-29T01:23:38.914Z,98460.72
2022-07-29T01:26:24.590Z,98461.97
2022-07-29T01:29:07.583Z,98448.75
2022-07-29T01:31:58.531Z,98452.00
2022-07-29T01:34:33.396Z,98453.44
2022-07-29T01:37:09.213Z,98448.66
2022-07-29T01:39:39.398Z,98451.28
2022-07-29T01:42:14.430Z,98446.75
2022-07-29T01:44:49.374Z,98440.66
2022-07-29T01:47:22.576Z,98441.69
2022-07-29T01:49:54.137Z,98435.50
2022-07-29T01:52:25.736Z,98436.94
2022-07-29T01:54:56.215Z,98444.41
2022-07-29T01:57:29.713Z,98439.91
2022-07-29T02:00:01.609Z,98429.94
2022-07-29T02:02:31.001Z,98431.91
2022-07-29T02:05:00.008Z,98433.06
2022-07-29T02:07:30.727Z,98430.13
2022-07-29T02:10:00.523Z,98428.19
2022-07-29T02:12:30.508Z,98432.19
2022-07-29T02:15:02.373Z,98428.34
2022-07-29T02:17:35.663Z,98437.94
2022-07-29T02:20:08.486Z,98434.97
2022-07-29T02:22:40.179Z,98424.00
2022-07-29T02:25:13.770Z,98419.09
2022-07-29T02:27:43.672Z,98426.69
2022-07-29T02:30:14.470Z,98429.41
2022-07-29T02:32:44.245Z,98425.25
2022-07-29T02:35:16.791Z,98422.47
2022-07-29T02:37:45.874Z,98429.16
2022-07-29T02:40:15.493Z,98418.38
2022-07-29T02:42:44.694Z,98419.22
2022-07-29T02:45:14.247Z,98415.03
2022-07-29T02:47:46.013Z,98417.44
2022-07-29T02:50:18.181Z,98416.63
2022-07-29T02:52:48.138Z,98407.63
2022-07-29T02:55:19.590Z,98409.16
2022-07-29T02:57:54.850Z,98397.28
2022-07-29T03:00:26.434Z,98399.00
2022-07-29T03:02:56.480Z,98405.75
2022-07-29T03:05:25.277Z,98409.06
2022-07-29T03:08:04.453Z,98406.47
2022-07-29T03:10:34.061Z,98400.09
2022-07-29T03:13:02.905Z,98407.06
2022-07-29T03:15:33.721Z,98406.47
2022-07-29T03:18:02.198Z,98415.03
2022-07-29T03:20:30.451Z,98411.78
2022-07-29T03:22:58.713Z,98402.69
2022-07-29T03:25:28.203Z,98409.63
2022-07-29T03:27:57.790Z,98406.22
2022-07-29T03:30:26.432Z,98406.69
2022-07-29T03:32:58.690Z,98404.75
2022-07-29T03:35:26.904Z,98411.13
2022-07-29T03:37:55.045Z,98414.22
2022-07-29T03:40:26.586Z,98409.06
2022-07-29T03:42:54.576Z,98407.00
2022-07-29T03:45:23.059Z,98413.94
2022-07-29T03:47:59.934Z,98412.50
2022-07-29T03:50:31.415Z,98414.38
2022-07-29T03:53:00.256Z,98410.41
2022-07-29T03:55:31.147Z,98408.69
2022-07-29T03:57:59.786Z,98398.47
2022-07-29T04:00:29.405Z,98396.75
2022-07-29T04:02:58.119Z,98401.34
2022-07-29T04:05:26.348Z,98399.97
2022-07-29T04:07:56.156Z,98413.00
2022-07-29T04:10:30.456Z,98414.63
2022-07-29T04:13:00.801Z,98406.38
2022-07-29T04:15:30.955Z,98412.13
2022-07-29T04:18:00.497Z,98413.88
2022-07-29T04:20:29.123Z,98402.88
2022-07-29T04:22:58.714Z,98411.03
2022-07-29T04:25:26.958Z,98408.03
2022-07-29T04:28:04.398Z,98410.84
2022-07-29T04:30:34.490Z,98408.84
2022-07-29T04:33:03.208Z,98409.09
2022-07-29T04:35:38.022Z,98401.09
2022-07-29T04:38:15.946Z,98399.84
2022-07-29T04:40:45.592Z,98399.59
2022-07-29T04:43:16.155Z,98402.34
2022-07-29T04:45:44.455Z,98402.88
2022-07-29T04:48:12.842Z,98411.31
2022-07-29T04:50:41.599Z,98391.59
2022-07-29T04:53:11.303Z,98405.28
2022-07-29T04:55:39.664Z,98402.31
2022-07-29T04:58:08.600Z,98401.97
2022-07-29T05:00:37.264Z,98399.28
2022-07-29T05:03:05.753Z,98381.31
2022-07-29T05:05:34.378Z,98386.88
2022-07-29T05:08:02.926Z,98393.75
2022-07-29T05:10:32.626Z,98392.28
2022-07-29T05:13:00.995Z,98397.69
2022-07-29T05:15:29.203Z,98396.44
2022-07-29T05:17:57.819Z,98400.97
2022-07-29T05:20:29.311Z,98393.63
2022-07-29T05:22:57.325Z,98400.09
2022-07-29T05:25:42.461Z,98393.13
2022-07-29T05:28:14.521Z,98403.03
2022-07-29T05:30:42.851Z,98400.72
2022-07-29T05:33:34.712Z,98393.50
2022-07-29T05:36:00.736Z,98404.25
2022-07-29T05:38:30.404Z,98402.75
2022-07-29T05:40:59.765Z,98403.22
2022-07-29T05:43:30.152Z,98400.78
2022-07-29T05:45:58.521Z,98405.16
2022-07-29T05:48:27.022Z,98394.28
2022-07-29T05:50:55.890Z,98398.88
2022-07-29T05:53:24.848Z,98394.56
2022-07-29T05:55:53.013Z,98395.50
2022-07-29T05:58:22.393Z,98389.91
2022-07-29T06:00:51.961Z,98396.75
2022-07-29T06:03:20.052Z,98392.38
2022-07-29T06:05:48.424Z,98391.47
2022-07-29T06:08:16.582Z,98389.91
2022-07-29T06:10:45.238Z,98377.44
2022-07-29T06:13:13.824Z,98391.13
2022-07-29T06:15:42.324Z,98381.63
2022-07-29T06:18:11.935Z,98376.00
2022-07-29T06:20:40.263Z,98389.19
2022-07-29T06:23:08.512Z,98385.19
2022-07-29T06:25:37.848Z,98403.94
2022-07-29T06:28:06.466Z,98398.59
2022-07-29T06:30:34.661Z,98400.25
2022-07-29T06:33:03.111Z,98400.44
2022-07-29T06:35:39.214Z,98403.75
2022-07-29T06:38:31.743Z,98403.50
2022-07-29T06:41:02.253Z,98408.16
2022-07-29T06:43:32.734Z,98401.94
2022-07-29T06:46:02.490Z,98399.38
2022-07-29T06:48:30.983Z,98406.19
2022-07-29T06:51:00.797Z,98403.00
2022-07-29T06:53:29.683Z,98397.97
2022-07-29T06:55:59.234Z,98397.69
2022-07-29T06:58:27.685Z,98383.69
2022-07-29T07:00:56.937Z,98413.28
2022-07-29T07:03:25.562Z,98388.16
2022-07-29T07:05:55.686Z,98381.00
2022-07-29T07:08:25.750Z,98383.00
2022-07-29T07:10:54.194Z,98378.78
2022-07-29T07:13:22.341Z,98393.16
2022-07-29T07:15:51.937Z,98391.78
2022-07-29T07:18:20.740Z,98397.66
2022-07-29T07:20:48.968Z,98389.09
2022-07-29T07:23:17.325Z,98391.69
2022-07-29T07:25:46.878Z,98386.03
2022-07-29T07:28:15.057Z,98389.72
2022-07-29T07:30:43.499Z,98394.59
2022-07-29T07:33:11.695Z,98386.31
2022-07-29T07:35:40.232Z,98401.53
2022-07-29T07:38:08.746Z,98386.44
2022-07-29T07:40:37.401Z,98388.88
2022-07-29T07:43:07.114Z,98395.31
2022-07-29T07:45:38.310Z,98402.81
2022-07-29T07:48:07.388Z,98398.84
2022-07-29T07:50:35.508Z,98401.97
2022-07-29T07:53:04.280Z,98393.38
2022-07-29T07:55:53.266Z,98390.91
2022-07-29T07:58:22.203Z,98395.75
2022-07-29T08:00:50.429Z,98382.31
2022-07-29T08:03:18.657Z,98394.09
2022-07-29T08:05:48.482Z,98395.84
2022-07-29T08:08:16.599Z,98396.91
2022-07-29T08:10:57.862Z,98391.34
2022-07-29T08:13:31.248Z,98385.94
2022-07-29T08:16:01.245Z,98387.81
2022-07-29T08:18:32.168Z,98391.31
2022-07-29T08:21:00.325Z,98385.03
2022-07-29T08:23:46.867Z,98411.75
2022-07-29T08:26:17.752Z,98384.72
2022-07-29T08:28:50.420Z,98382.44
2022-07-29T08:31:19.194Z,98379.59
2022-07-29T08:33:47.420Z,98393.78
2022-07-29T08:36:15.726Z,98379.59
2022-07-29T08:38:43.986Z,98379.13
2022-07-29T08:41:12.132Z,98371.06
2022-07-29T08:43:42.874Z,98380.72
2022-07-29T08:46:12.818Z,98387.22
2022-07-29T08:48:41.411Z,98385.78
2022-07-29T08:51:10.485Z,98384.31
2022-07-29T08:53:39.400Z,98399.72
2022-07-29T08:56:08.377Z,98393.03
2022-07-29T08:58:38.460Z,98378.53
2022-07-29T09:01:07.639Z,98380.88
2022-07-29T09:03:42.747Z,98383.97
2022-07-29T09:06:11.786Z,98385.78
2022-07-29T09:08:40.139Z,98386.56
2022-07-29T09:11:08.612Z,98385.09
2022-07-29T09:13:37.200Z,98375.72
2022-07-29T09:16:09.307Z,98371.91
2022-07-29T09:18:39.890Z,98364.97
2022-07-29T09:21:32.024Z,98367.69
2022-07-29T09:24:06.353Z,98368.22
2022-07-29T09:26:35.716Z,98366.09
2022-07-29T09:29:11.513Z,98373.28
2022-07-29T09:31:41.031Z,98369.88
2022-07-29T09:34:10.205Z,98377.53
2022-07-29T09:36:42.743Z,98365.50
2022-07-29T09:39:11.441Z,98355.63
2022-07-29T09:41:48.773Z,98355.75
2022-07-29T09:44:22.702Z,98351.50
2022-07-29T09:47:06.992Z,98353.94
2022-07-29T09:49:35.789Z,98336.13
2022-07-29T09:52:09.465Z,98347.88
2022-07-29T09:54:40.945Z,98343.91
2022-07-29T09:57:13.521Z,98355.59
2022-07-29T09:59:50.373Z,98353.03
2022-07-29T10:02:23.663Z,98349.69
2022-07-29T10:04:52.523Z,98340.25
2022-07-29T10:07:21.989Z,98350.56
2022-07-29T10:09:56.128Z,98339.38
2022-07-29T10:12:27.628Z,98343.16
2022-07-29T10:14:56.088Z,98342.78
2022-07-29T10:17:24.599Z,98345.41
2022-07-29T10:19:52.967Z,98343.16
2022-07-29T10:22:51.546Z,98343.47
2022-07-29T10:25:11.893Z,98334.78
2022-07-29T10:27:40.371Z,98335.97
2022-07-29T10:30:09.572Z,98330.72
2022-07-29T10:32:52.452Z,98333.44
2022-07-29T10:35:43.866Z,98330.19
2022-07-29T10:38:30.246Z,98326.19
2022-07-29T10:41:23.364Z,98328.19
2022-07-29T10:43:52.671Z,98313.66
2022-07-29T10:46:23.020Z,98328.22
2022-07-29T10:49:15.697Z,98317.91
2022-07-29T10:51:54.527Z,98321.97
2022-07-29T10:54:51.102Z,98315.22
2022-07-29T10:57:53.411Z,98314.63
2022-07-29T11:00:32.419Z,98314.81
2022-07-29T11:03:04.848Z,98342.75
2022-07-29T11:05:56.211Z,98319.69
2022-07-29T11:08:27.999Z,98310.94
2022-07-29T11:11:37.939Z,98306.34
2022-07-29T11:14:10.428Z,98315.72
2022-07-29T11:17:02.065Z,98309.56
2022-07-29T11:19:31.024Z,98300.84
2022-07-29T11:21:59.482Z,98306.75
2022-07-29T11:24:34.924Z,98307.13
2022-07-29T11:27:18.284Z,98306.03
2022-07-29T11:29:57.447Z,98302.50
2022-07-29T11:32:29.444Z,98303.75
2022-07-29T11:35:17.040Z,98310.81
2022-07-29T11:37:52.714Z,98317.34
2022-07-29T11:40:24.175Z,98313.56
2022-07-29T11:42:52.831Z,98300.78
2022-07-29T11:45:44.460Z,98304.84
2022-07-29T11:48:31.997Z,98301.84
2022-07-29T11:51:01.357Z,98300.84
2022-07-29T11:53:32.530Z,98306.75
2022-07-29T11:56:02.452Z,98295.31
2022-07-29T11:58:31.839Z,98299.94
2022-07-29T12:01:04.494Z,98304.06
2022-07-29T12:03:35.924Z,98293.69
2022-07-29T12:06:07.573Z,98300.03
2022-07-29T12:08:43.801Z,98298.81
2022-07-29T12:11:20.914Z,98302.22
2022-07-29T12:13:50.822Z,98305.19
2022-07-29T12:16:25.833Z,98300.19
2022-07-29T12:19:07.913Z,98305.59
2022-07-29T12:21:53.792Z,98297.66
2022-07-29T12:24:26.938Z,98304.53
2022-07-29T12:26:56.981Z,98292.66
2022-07-29T12:29:35.275Z,98300.84
2022-07-29T12:32:14.883Z,98293.69
2022-07-29T12:34:48.002Z,98292.41
2022-07-29T12:37:16.193Z,98293.06
2022-07-29T12:39:44.625Z,98290.03
2022-07-29T12:42:15.011Z,98293.81
2022-07-29T12:44:50.772Z,98284.78
2022-07-29T12:47:21.122Z,98292.94
2022-07-29T12:49:50.321Z,98292.41
2022-07-29T12:52:29.833Z,98288.47
2022-07-29T12:54:58.751Z,98284.69
2022-07-29T12:57:27.105Z,98278.97
2022-07-29T13:00:04.086Z,98270.22
2022-07-29T13:02:34.038Z,98262.81
2022-07-29T13:05:03.224Z,98267.44
2022-07-29T13:07:54.094Z,98275.13
2022-07-29T13:10:24.457Z,98261.53
2022-07-29T13:13:10.529Z,98261.38
2022-07-29T13:15:40.012Z,98254.06
2022-07-29T13:18:30.247Z,98253.34
2022-07-29T13:20:58.986Z,98253.19
2022-07-29T13:23:27.253Z,98242.06
2022-07-29T13:25:55.368Z,98236.53
2022-07-29T13:28:23.864Z,98233.69
2022-07-29T13:30:52.072Z,98235.47
2022-07-29T13:33:20.259Z,98230.31
2022-07-29T13:35:49.986Z,98229.66
2022-07-29T13:38:18.090Z,98220.34
2022-07-29T13:40:46.191Z,98229.63
2022-07-29T13:43:14.595Z,98222.78
2022-07-29T13:45:42.964Z,98211.84
2022-07-29T13:48:12.247Z,98208.00
2022-07-29T13:50:40.666Z,98215.69
2022-07-29T13:53:10.423Z,98202.97
2022-07-29T13:55:46.685Z,98201.06
2022-07-29T13:58:15.402Z,98195.81
2022-07-29T14:00:43.564Z,98192.16
2022-07-29T14:03:12.098Z,98186.78
2022-07-29T14:05:40.363Z,98193.50
2022-07-29T14:08:08.676Z,98184.31
2022-07-29T14:10:38.310Z,98178.25
2022-07-29T14:13:06.610Z,98175.91
2022-07-29T14:15:53.274Z,98178.75
2022-07-29T14:18:21.497Z,98179.66
2022-07-29T14:20:49.701Z,98177.28
2022-07-29T14:23:17.976Z,98164.78
2022-07-29T14:25:49.759Z,98179.88
2022-07-29T14:28:17.998Z,98163.97
2022-07-29T14:30:46.354Z,98170.63
2022-07-29T14:33:14.820Z,98167.97
2022-07-29T14:35:43.095Z,98168.16
2022-07-29T14:38:11.442Z,98192.56
2022-07-29T14:40:40.171Z,98170.22
2022-07-29T14:43:09.645Z,98161.13
2022-07-29T14:45:39.199Z,98166.13
2022-07-29T14:48:07.826Z,98159.06
2022-07-29T14:50:35.994Z,98154.31
2022-07-29T14:53:04.462Z,98141.22
2022-07-29T14:55:32.793Z,98148.72
2022-07-29T14:58:09.718Z,98145.41
2022-07-29T15:00:41.100Z,98153.13
2022-07-29T15:03:11.572Z,98156.41
2022-07-29T15:05:40.028Z,98156.75
2022-07-29T15:08:09.427Z,98170.19
2022-07-29T15:10:37.706Z,98158.91
2022-07-29T15:13:05.875Z,98163.13
2022-07-29T15:15:34.213Z,98162.66
2022-07-29T15:18:03.962Z,98173.13
2022-07-29T15:20:32.341Z,98169.16
2022-07-29T15:23:00.871Z,98163.00
2022-07-29T15:25:29.056Z,98174.22
2022-07-29T15:28:01.169Z,98175.41
2022-07-29T15:30:33.494Z,98179.69
2022-07-29T15:33:04.492Z,98184.09
2022-07-29T15:35:33.186Z,98190.09
2022-07-29T15:38:01.369Z,98188.72
2022-07-29T15:40:29.905Z,98195.78
2022-07-29T15:42:58.503Z,98196.94
2022-07-29T15:45:26.816Z,98192.69
2022-07-29T15:48:00.414Z,98201.47
2022-07-29T15:50:30.168Z,98202.91
2022-07-29T15:52:58.871Z,98193.81
2022-07-29T15:55:27.524Z,98195.25
2022-07-29T15:58:00.281Z,98194.19
2022-07-29T16:00:29.143Z,98182.50
2022-07-29T16:02:57.389Z,98191.00
2022-07-29T16:05:25.842Z,98185.75
2022-07-29T16:07:55.576Z,98185.28
2022-07-29T16:10:23.927Z,98184.56
2022-07-29T16:12:52.168Z,98190.69
2022-07-29T16:15:20.781Z,98182.28
2022-07-29T16:17:50.462Z,98194.06
2022-07-29T16:20:18.622Z,98190.75
2022-07-29T16:22:47.279Z,98190.25
2022-07-29T16:25:16.869Z,98192.88
2022-07-29T16:27:45.259Z,98193.91
2022-07-29T16:30:13.959Z,98214.16
2022-07-29T16:32:42.276Z,98215.59
2022-07-29T16:35:13.178Z,98223.63
2022-07-29T16:37:41.866Z,98217.88
2022-07-29T16:40:11.703Z,98212.75
2022-07-29T16:42:46.984Z,98219.31
2022-07-29T16:45:16.812Z,98212.00
2022-07-29T16:47:46.348Z,98216.31
2022-07-29T16:50:14.640Z,98214.78
2022-07-29T16:52:42.974Z,98220.03
2022-07-29T16:55:11.280Z,98226.38
2022-07-29T16:57:39.456Z,98229.53
2022-07-29T17:00:10.626Z,98218.38
2022-07-29T17:02:39.403Z,98215.34
2022-07-29T17:05:08.499Z,98216.91
2022-07-29T17:07:36.906Z,98221.69
2022-07-29T17:10:08.128Z,98224.53
2022-07-29T17:12:36.515Z,98242.13
2022-07-29T17:15:05.498Z,98231.13
2022-07-29T17:17:39.512Z,98237.78
2022-07-29T17:20:23.543Z,98232.31
2022-07-29T17:22:51.772Z,98237.22
2022-07-29T17:25:20.640Z,98232.16
2022-07-29T17:27:50.731Z,98244.13
2022-07-29T17:30:19.498Z,98249.91
2022-07-29T17:32:48.965Z,98240.66
2022-07-29T17:35:34.965Z,98242.75
2022-07-29T17:38:03.094Z,98240.97
2022-07-29T17:40:31.541Z,98235.78
2022-07-29T17:42:59.890Z,98227.97
2022-07-29T17:45:48.759Z,98246.25
2022-07-29T17:48:17.822Z,98259.44
2022-07-29T17:50:46.082Z,98260.16
2022-07-29T17:53:16.563Z,98259.16
2022-07-29T17:55:45.944Z,98264.81
2022-07-29T17:58:14.226Z,98265.47
2022-07-29T18:00:42.952Z,98254.00
2022-07-29T18:03:11.688Z,98252.47
2022-07-29T18:05:41.405Z,98246.41
2022-07-29T18:08:09.649Z,98235.03
2022-07-29T18:10:38.583Z,98217.03
2022-07-29T18:13:07.455Z,98227.50
2022-07-29T18:15:36.086Z,98224.63
2022-07-29T18:18:04.576Z,98224.47
2022-07-29T18:20:33.097Z,98221.53
2022-07-29T18:23:02.876Z,98226.88
2022-07-29T18:25:31.498Z,98232.53
2022-07-29T18:28:00.652Z,98233.97
2022-07-29T18:30:29.232Z,98239.03
2022-07-29T18:33:19.863Z,98242.28
2022-07-29T18:35:46.337Z,98235.72
2022-07-29T18:38:16.108Z,98231.84
2022-07-29T18:40:46.032Z,98236.25
2022-07-29T18:43:14.775Z,98234.53
2022-07-29T18:45:43.343Z,98239.47
2022-07-29T18:48:12.948Z,98239.56
2022-07-29T18:50:42.078Z,98235.16
2022-07-29T18:53:10.628Z,98237.53
2022-07-29T18:55:40.093Z,98231.50
2022-07-29T18:58:08.265Z,98233.91
2022-07-29T19:00:36.680Z,98234.34
2022-07-29T19:03:05.122Z,98247.59
2022-07-29T19:05:33.497Z,98242.00
2022-07-29T19:08:01.881Z,98249.63
2022-07-29T19:10:30.518Z,98262.66
2022-07-29T19:12:59.968Z,98261.53
2022-07-29T19:15:28.660Z,98259.47
2022-07-29T19:18:00.978Z,98253.97
2022-07-29T19:20:29.989Z,98253.97
2022-07-29T19:22:58.681Z,98261.91
2022-07-29T19:25:26.956Z,98271.69
2022-07-29T19:27:55.352Z,98278.91
2022-07-29T19:30:24.848Z,98284.16
2022-07-29T19:32:53.043Z,98270.09
2022-07-29T19:35:31.149Z,98270.13
2022-07-29T19:38:00.763Z,98270.47
2022-07-29T19:40:30.248Z,98274.53
2022-07-29T19:42:59.112Z,98263.69
2022-07-29T19:45:29.057Z,98272.13
2022-07-29T19:48:01.279Z,98277.31
2022-07-29T19:50:30.504Z,98274.13
2022-07-29T19:52:59.138Z,98279.31
2022-07-29T19:55:27.400Z,98285.41
2022-07-29T19:57:55.707Z,98285.31
2022-07-29T20:00:25.266Z,98295.44
2022-07-29T20:02:56.536Z,98297.38
2022-07-29T20:05:27.843Z,98295.84
2022-07-29T20:07:56.643Z,98291.00
2022-07-29T20:10:25.341Z,98292.22
2022-07-29T20:12:55.174Z,98279.31
2022-07-29T20:15:23.996Z,98274.88
2022-07-29T20:17:57.012Z,98269.25
2022-07-29T20:20:27.646Z,98255.63
2022-07-29T20:22:55.871Z,98257.47
2022-07-29T20:25:25.315Z,98251.16
2022-07-29T20:27:54.410Z,98241.13
2022-07-29T20:30:23.441Z,98242.72
2022-07-29T20:32:51.895Z,98238.59
2022-07-29T20:35:22.435Z,98239.44
2022-07-29T20:37:56.024Z,98237.91
2022-07-29T20:40:25.597Z,98230.94
2022-07-29T20:42:53.815Z,98223.69
2022-07-29T20:45:22.598Z,98223.25
2022-07-29T20:47:51.938Z,98228.06
2022-07-29T20:50:23.984Z,98237.25
2022-07-29T20:52:54.218Z,98223.41
2022-07-29T20:55:22.420Z,98223.72
2022-07-29T20:57:50.792Z,98211.81
2022-07-29T21:00:19.303Z,98212.72
2022-07-29T21:02:47.643Z,98208.88
2022-07-29T21:05:16.326Z,98198.00
2022-07-29T21:07:44.752Z,98199.41
2022-07-29T21:10:15.085Z,98201.34
2022-07-29T21:12:43.250Z,98203.25
2022-07-29T21:15:13.638Z,98188.31
2022-07-29T21:17:46.905Z,98188.59
2022-07-29T21:20:16.093Z,98192.25
2022-07-29T21:22:44.775Z,98192.84
2022-07-29T21:25:14.321Z,98196.41
2022-07-29T21:28:00.346Z,98200.59
2022-07-29T21:30:28.508Z,98194.31
2022-07-29T21:32:56.918Z,98198.72
2022-07-29T21:36:01.844Z,98195.00
2022-07-29T21:38:13.384Z,98205.72
2022-07-29T21:40:42.868Z,98190.97
2022-07-29T21:43:11.105Z,98196.59
2022-07-29T21:45:39.597Z,98192.97
2022-07-29T21:48:08.190Z,98193.00
2022-07-29T21:50:36.759Z,98192.28
2022-07-29T21:53:04.998Z,98203.00
2022-07-29T21:55:33.911Z,98197.88
2022-07-29T21:58:04.364Z,98190.94
2022-07-29T22:00:33.968Z,98198.41
2022-07-29T22:03:02.601Z,98189.78
2022-07-29T22:05:31.123Z,98174.81
2022-07-29T22:08:00.043Z,98177.44
2022-07-29T22:10:29.881Z,98184.84
2022-07-29T22:12:59.322Z,98178.47
2022-07-29T22:15:29.741Z,98187.75
2022-07-29T22:17:57.918Z,98185.03
2022-07-29T22:20:26.259Z,98179.63
2022-07-29T22:22:55.070Z,98177.78
2022-07-29T22:25:23.371Z,98183.06
2022-07-29T22:27:51.766Z,98200.03
2022-07-29T22:30:20.281Z,98185.00
2022-07-29T22:32:49.731Z,98182.41
2022-07-29T22:35:18.152Z,98191.78
2022-07-29T22:37:46.446Z,98191.09
2022-07-29T22:40:14.611Z,98179.53
2022-07-29T22:42:42.697Z,98164.41
2022-07-29T22:45:11.815Z,98163.19
2022-07-29T22:47:48.303Z,98162.13
2022-07-29T22:50:18.762Z,98169.22
2022-07-29T22:52:47.097Z,98162.34
2022-07-29T22:55:15.231Z,98161.34
2022-07-29T22:57:43.497Z,98157.84
2022-07-29T23:00:13.607Z,98150.03
2022-07-29T23:02:41.848Z,98148.78
2022-07-29T23:05:11.416Z,98149.75
2022-07-29T23:07:41.079Z,98145.31
2022-07-29T23:10:10.312Z,98135.50
2022-07-29T23:12:39.087Z,98144.16
2022-07-29T23:15:07.907Z,98138.81
2022-07-29T23:17:36.883Z,98129.09
2022-07-29T23:20:08.037Z,98124.53
2022-07-29T23:22:36.347Z,98122.59
2022-07-29T23:25:07.374Z,98115.59
2022-07-29T23:27:35.650Z,98109.94
2022-07-29T23:30:04.249Z,98103.06
2022-07-29T23:32:32.288Z,98100.31
2022-07-29T23:35:00.548Z,98097.69
2022-07-29T23:37:28.844Z,98094.44
2022-07-29T23:39:57.066Z,98095.34
2022-07-29T23:42:26.785Z,98089.09
2022-07-29T23:44:54.911Z,98081.69
2022-07-29T23:47:23.034Z,98082.97
2022-07-29T23:49:51.781Z,98071.91
2022-07-29T23:52:19.901Z,98074.41
2022-07-29T23:54:48.259Z,98070.44
2022-07-29T23:57:16.665Z,98066.28
2022-07-29T23:59:46.178Z,98073.09
